Time;durP1;ratioP1;P1;durP2;ratioP2;P2;SDS_P1;SDS_P2;PMS_P1;PMS_P2;Temp;Humidity;BMP_temperature;BMP_pressure;BME280_temperature;BME280_humidity;BME280_pressure;Samples;Min_cycle;Max_cycle;Signal;HPM_P1;HPM_P2
2022/01/30 00:02:05;;;;;;;;;;;;;;;11.73;50.51;102831.72;5098369;28;19923;-82
2022/01/30 00:04:30;;;;;;;;;;;;;;;12.16;49.45;102832.63;5099456;28;19938;-81
2022/01/30 00:06:56;;;;;;;;;;;;;;;12.45;48.15;102845.53;5098126;28;20011;-81
2022/01/30 00:09:22;;;;;;;;;;;;;;;11.70;49.13;102840.78;5098401;28;19926;-81
2022/01/30 00:11:53;;;;;;;;;;;;;;;12.08;48.79;102853.59;5098184;28;19996;-80
2022/01/30 00:14:20;;;;;;;;;;;;;;;11.97;48.84;102845.69;5099511;28;19916;-82
2022/01/30 00:16:48;;;;;;;;;;;;;;;11.46;49.67;102838.59;5098246;28;19957;-81
2022/01/30 00:19:23;;;;;;;;;;;;;;;12.00;49.10;102835.69;5098323;28;19916;-81
2022/01/30 00:21:59;;;;;;;;;;;;;;;12.20;48.54;102835.25;5098520;28;19930;-82
2022/01/30 00:24:43;;;;;;;;;;;;;;;11.86;48.83;102840.47;5099564;28;19916;-81
2022/01/30 00:27:15;;;;;;;;;;;;;;;11.66;49.90;102849.91;5098429;28;19912;-81
2022/01/30 00:29:40;;;;;;;;;;;;;;;11.57;50.43;102858.22;5098751;28;20010;-82
2022/01/30 00:32:06;;;;;;;;;;;;;;;11.76;50.87;102863.28;5097913;28;19974;-80
2022/01/30 00:34:31;;;;;;;;;;;;;;;11.56;52.07;102856.44;5098717;28;19995;-81
2022/01/30 00:36:56;;;;;;;;;;;;;;;11.82;51.17;102850.50;5099280;28;19912;-82
2022/01/30 00:39:21;;;;;;;;;;;;;;;11.66;51.44;102866.19;5104615;28;19920;-81
2022/01/30 00:41:47;;;;;;;;;;;;;;;11.52;52.30;102857.44;5102893;28;19916;-82
2022/01/30 00:44:12;;;;;;;;;;;;;;;11.38;52.83;102867.63;5102877;28;20050;-82
2022/01/30 00:46:38;;;;;;;;;;;;;;;11.35;52.74;102866.78;5100065;28;20001;-81
2022/01/30 00:49:03;;;;;;;;;;;;;;;11.41;53.12;102878.41;5102461;28;19969;-82
2022/01/30 00:51:28;;;;;;;;;;;;;;;11.48;52.41;102870.13;5099788;28;20007;-82
2022/01/30 00:53:53;;;;;;;;;;;;;;;12.11;51.06;102867.09;5098014;28;19927;-82
2022/01/30 00:56:19;;;;;;;;;;;;;;;11.92;50.94;102866.59;5097477;28;19969;-81
2022/01/30 00:58:44;;;;;;;;;;;;;;;11.46;51.78;102869.28;5097309;28;20390;-81
2022/01/30 01:01:09;;;;;;;;;;;;;;;11.44;51.58;102864.81;5097291;28;19997;-81
2022/01/30 01:03:34;;;;;;;;;;;;;;;11.50;51.05;102870.09;5097721;28;19916;-81
2022/01/30 01:06:02;;;;;;;;;;;;;;;11.38;51.07;102873.06;5097569;28;20410;-82
2022/01/30 01:08:49;;;;;;;;;;;;;;;11.18;51.41;102874.31;5097251;28;19966;-81
2022/01/30 01:24:07;;;;;;;;;;;;;;;11.78;49.67;102881.31;5099951;28;20373;-82
2022/01/30 01:26:33;;;;;;;;;;;;;;;12.56;48.33;102891.44;5098456;28;20577;-82
2022/01/30 01:28:59;;;;;;;;;;;;;;;11.34;50.79;102892.06;5098580;28;20285;-82
2022/01/30 01:31:24;;;;;;;;;;;;;;;11.76;50.15;102890.38;5098423;28;19916;-81
2022/01/30 01:36:33;;;;;;;;;;;;;;;11.43;50.43;102887.41;5099873;28;20065;-81
2022/01/30 01:38:59;;;;;;;;;;;;;;;11.26;50.92;102899.47;5099690;28;19951;-82
2022/01/30 01:41:25;;;;;;;;;;;;;;;11.74;50.06;102894.97;5097969;28;19916;-83
2022/01/30 01:43:51;;;;;;;;;;;;;;;11.48;50.45;102896.34;5098389;28;19977;-81
2022/01/30 01:46:21;;;;;;;;;;;;;;;11.42;50.24;102893.75;5098155;28;19916;-82
2022/01/30 01:48:49;;;;;;;;;;;;;;;11.23;50.82;102894.09;5098393;28;19916;-81
2022/01/30 01:51:18;;;;;;;;;;;;;;;11.03;50.56;102893.53;5099317;28;19920;-82
2022/01/30 01:53:44;;;;;;;;;;;;;;;11.37;49.68;102898.34;5099167;28;19931;-81
2022/01/30 01:56:09;;;;;;;;;;;;;;;11.99;48.17;102893.56;5098989;28;19916;-81
2022/01/30 01:58:35;;;;;;;;;;;;;;;11.74;48.50;102895.84;5098771;28;19927;-82
2022/01/30 02:01:02;;;;;;;;;;;;;;;11.27;49.44;102893.09;5099135;28;19923;-82
2022/01/30 02:03:28;;;;;;;;;;;;;;;11.59;49.39;102894.31;5099215;28;20477;-81
2022/01/30 02:05:57;;;;;;;;;;;;;;;11.97;48.69;102891.81;5098644;28;19916;-82
2022/01/30 02:08:31;;;;;;;;;;;;;;;12.16;48.56;102897.75;5098846;28;19926;-81
2022/01/30 02:24:17;;;;;;;;;;;;;;;12.24;48.60;102906.63;5100477;28;20380;-82
2022/01/30 02:26:45;;;;;;;;;;;;;;;11.61;49.61;102906.06;5098832;28;20471;-80
2022/01/30 02:29:11;;;;;;;;;;;;;;;12.13;48.82;102905.97;5098606;28;19927;-81
2022/01/30 02:31:39;;;;;;;;;;;;;;;11.59;49.86;102907.88;5098647;28;19923;-82
2022/01/30 02:34:04;;;;;;;;;;;;;;;11.96;49.62;102920.78;5099816;28;19916;-81
2022/01/30 02:36:29;;;;;;;;;;;;;;;12.40;48.64;102908.06;5098534;28;20339;-82
2022/01/30 02:38:58;;;;;;;;;;;;;;;11.64;49.95;102908.69;5098564;28;19918;-81
2022/01/30 02:41:23;;;;;;;;;;;;;;;11.38;50.47;102909.16;5098445;28;19916;-81
2022/01/30 02:44:04;;;;;;;;;;;;;;;12.30;49.37;102905.59;5095339;28;19961;-82
2022/01/30 02:46:33;;;;;;;;;;;;;;;11.57;50.64;102903.44;5095110;28;19924;-82
2022/01/30 02:49:11;;;;;;;;;;;;;;;12.03;50.31;102895.31;5095055;28;19946;-82
2022/01/30 02:51:46;;;;;;;;;;;;;;;11.83;50.79;102902.91;5096159;28;19999;-81
2022/01/30 02:54:11;;;;;;;;;;;;;;;11.32;51.66;102903.84;5095036;28;19928;-81
2022/01/30 02:56:37;;;;;;;;;;;;;;;11.41;51.23;102900.09;5095110;28;19950;-81
2022/01/30 02:59:02;;;;;;;;;;;;;;;12.11;49.52;102896.94;5094706;28;19920;-82
2022/01/30 03:01:27;;;;;;;;;;;;;;;11.37;51.05;102901.97;5094569;28;20003;-81
2022/01/30 03:03:52;;;;;;;;;;;;;;;11.55;50.60;102907.97;5095879;28;20434;-81
2022/01/30 03:06:18;;;;;;;;;;;;;;;11.49;50.29;102909.88;5095044;28;19934;-81
2022/01/30 03:08:43;;;;;;;;;;;;;;;11.97;49.27;102906.28;5094975;28;19916;-81
2022/01/30 03:11:08;;;;;;;;;;;;;;;11.93;48.92;102900.97;5098084;28;19920;-81
2022/01/30 03:13:33;;;;;;;;;;;;;;;12.02;48.41;102906.19;5100236;28;19919;-81
2022/01/30 03:16:03;;;;;;;;;;;;;;;11.73;49.61;102923.91;5099187;28;19927;-81
2022/01/30 03:18:28;;;;;;;;;;;;;;;11.66;49.67;102919.53;5098917;28;19916;-81
2022/01/30 03:20:53;;;;;;;;;;;;;;;11.26;50.15;102913.00;5100379;28;20027;-81
2022/01/30 03:23:19;;;;;;;;;;;;;;;11.28;50.54;102921.13;5098950;28;19920;-81
2022/01/30 03:25:44;;;;;;;;;;;;;;;11.28;51.58;102921.13;5098626;28;19916;-81
2022/01/30 03:28:09;;;;;;;;;;;;;;;11.20;51.71;102932.06;5100235;28;19916;-81
2022/01/30 03:30:36;;;;;;;;;;;;;;;11.20;52.19;102934.75;5098821;28;20429;-81
2022/01/30 03:33:01;;;;;;;;;;;;;;;11.63;50.74;102936.72;5098691;28;19951;-80
2022/01/30 03:35:26;;;;;;;;;;;;;;;11.02;50.70;102943.19;5098438;28;19923;-81
2022/01/30 03:37:52;;;;;;;;;;;;;;;11.56;49.30;102959.44;5098466;28;20002;-82
2022/01/30 03:40:17;;;;;;;;;;;;;;;11.58;48.31;102949.47;5098295;28;20622;-81
2022/01/30 03:42:42;;;;;;;;;;;;;;;11.21;48.00;102944.69;5098354;28;20001;-81
2022/01/30 03:45:08;;;;;;;;;;;;;;;11.80;46.87;102938.22;5098598;28;19920;-82
2022/01/30 03:47:33;;;;;;;;;;;;;;;11.88;45.46;102936.25;5098683;28;20019;-81
2022/01/30 03:49:59;;;;;;;;;;;;;;;11.22;45.98;102929.31;5098530;28;19920;-81
2022/01/30 03:52:24;;;;;;;;;;;;;;;11.61;44.98;102933.16;5098249;28;20332;-81
2022/01/30 03:54:49;;;;;;;;;;;;;;;11.34;45.39;102926.41;5099683;28;19967;-81
2022/01/30 03:57:14;;;;;;;;;;;;;;;11.62;44.30;102934.94;5102994;28;19919;-81
2022/01/30 03:59:40;;;;;;;;;;;;;;;11.44;45.37;102938.88;5102829;28;19917;-81
2022/01/30 04:02:05;;;;;;;;;;;;;;;11.54;44.88;102950.44;5098977;28;19939;-81
2022/01/30 04:04:33;;;;;;;;;;;;;;;11.47;45.53;102954.19;5099995;28;19923;-82
2022/01/30 04:06:59;;;;;;;;;;;;;;;10.81;46.50;102932.69;5098399;28;19917;-81
2022/01/30 04:09:28;;;;;;;;;;;;;;;10.87;47.12;102947.94;5098073;28;20327;-81
2022/01/30 04:11:53;;;;;;;;;;;;;;;11.25;46.80;102940.13;5098373;28;19916;-81
2022/01/30 04:14:19;;;;;;;;;;;;;;;11.38;47.07;102938.97;5097793;28;20003;-81
2022/01/30 04:16:44;;;;;;;;;;;;;;;11.53;46.78;102940.53;5097867;28;20428;-81
2022/01/30 04:19:09;;;;;;;;;;;;;;;11.19;47.84;102943.81;5098276;28;19916;-81
2022/01/30 04:21:35;;;;;;;;;;;;;;;12.20;46.01;102943.78;5098094;28;19924;-81
2022/01/30 04:24:00;;;;;;;;;;;;;;;11.86;46.83;102946.25;5099081;28;19920;-81
2022/01/30 04:26:25;;;;;;;;;;;;;;;11.95;47.30;102942.50;5097792;28;19916;-81
2022/01/30 04:28:51;;;;;;;;;;;;;;;11.96;47.60;102936.16;5097697;28;19916;-81
2022/01/30 04:31:16;;;;;;;;;;;;;;;10.90;49.35;102925.31;5098823;28;20342;-81
2022/01/30 04:33:41;;;;;;;;;;;;;;;10.91;48.72;102940.66;5097411;28;20384;-81
2022/01/30 04:36:10;;;;;;;;;;;;;;;11.05;48.73;102949.47;5097399;28;20032;-81
2022/01/30 04:41:55;;;;;;;;;;;;;;;11.57;46.78;102949.50;5074954;28;20294;-81
2022/01/30 04:57:56;;;;;;;;;;;;;;;11.21;47.15;102962.78;5100126;28;19922;-81
2022/01/30 05:06:01;;;;;;;;;;;;;;;11.07;47.17;102981.97;5098984;28;19926;-81
2022/01/30 05:08:27;;;;;;;;;;;;;;;10.89;47.69;102985.84;5097614;28;20010;-81
2022/01/30 05:10:53;;;;;;;;;;;;;;;11.13;46.94;102985.44;5097630;28;19919;-81
2022/01/30 05:13:22;;;;;;;;;;;;;;;10.71;47.44;102981.56;5097393;28;19916;-80
2022/01/30 05:15:47;;;;;;;;;;;;;;;11.18;46.85;102982.66;5096910;28;20327;-81
2022/01/30 05:18:23;;;;;;;;;;;;;;;11.12;46.83;102990.91;5097912;28;20011;-81
2022/01/30 05:20:48;;;;;;;;;;;;;;;11.48;45.59;102985.81;5096017;28;19920;-81
2022/01/30 05:23:15;;;;;;;;;;;;;;;11.15;46.42;102989.03;5096660;28;19920;-81
2022/01/30 05:25:40;;;;;;;;;;;;;;;10.81;46.16;102981.41;5096324;28;19916;-81
2022/01/30 05:28:06;;;;;;;;;;;;;;;11.09;46.34;102989.13;5096458;28;19916;-81
2022/01/30 05:30:32;;;;;;;;;;;;;;;11.60;45.20;103007.28;5097408;28;19969;-81
2022/01/30 05:32:57;;;;;;;;;;;;;;;10.87;46.45;103004.81;5095616;28;19920;-81
2022/01/30 05:35:23;;;;;;;;;;;;;;;11.58;45.20;103022.69;5095915;28;19962;-81
2022/01/30 05:37:48;;;;;;;;;;;;;;;11.79;43.94;103031.34;5095861;28;19966;-80
2022/01/30 05:40:14;;;;;;;;;;;;;;;12.21;44.10;103032.44;5095877;28;19957;-81
2022/01/30 05:42:39;;;;;;;;;;;;;;;11.84;44.33;103034.88;5095732;28;19923;-81
2022/01/30 05:45:17;;;;;;;;;;;;;;;11.63;45.36;103045.19;5095735;28;19919;-81
2022/01/30 05:47:47;;;;;;;;;;;;;;;12.05;44.10;103047.19;5097412;28;20023;-80
2022/01/30 05:50:13;;;;;;;;;;;;;;;11.60;45.11;103050.66;5096285;28;19924;-81
2022/01/30 05:52:38;;;;;;;;;;;;;;;12.03;43.91;103051.75;5097189;28;19931;-81
2022/01/30 05:55:03;;;;;;;;;;;;;;;11.57;45.42;103061.53;5095627;28;19916;-80
2022/01/30 05:57:29;;;;;;;;;;;;;;;11.34;45.43;103062.81;5096524;28;19917;-81
2022/01/30 05:59:54;;;;;;;;;;;;;;;11.22;45.91;103063.00;5095416;28;19927;-81
2022/01/30 06:02:19;;;;;;;;;;;;;;;11.39;45.50;103065.44;5095162;28;19958;-81
2022/01/30 06:04:44;;;;;;;;;;;;;;;11.52;45.42;103068.88;5095293;28;19938;-81
2022/01/30 06:07:11;;;;;;;;;;;;;;;11.53;44.92;103084.19;5095560;28;19916;-80
2022/01/30 06:09:36;;;;;;;;;;;;;;;12.32;43.44;103075.63;5095507;28;19971;-81
2022/01/30 06:12:02;;;;;;;;;;;;;;;11.52;45.86;103077.88;5095188;28;19952;-81
2022/01/30 06:14:27;;;;;;;;;;;;;;;11.82;44.97;103077.41;5095317;28;19913;-81
2022/01/30 06:16:53;;;;;;;;;;;;;;;11.99;44.59;103075.34;5095374;28;19927;-82
2022/01/30 06:19:18;;;;;;;;;;;;;;;11.76;45.67;103073.00;5095207;28;20411;-81
2022/01/30 06:21:44;;;;;;;;;;;;;;;11.12;46.75;103074.88;5094728;28;19963;-81
2022/01/30 06:24:09;;;;;;;;;;;;;;;11.68;44.59;103078.56;5093574;28;19916;-81
2022/01/30 06:26:35;;;;;;;;;;;;;;;11.65;45.69;103086.69;5094221;28;19957;-81
2022/01/30 06:29:00;;;;;;;;;;;;;;;11.31;46.25;103079.09;5095036;28;19916;-81
2022/01/30 06:31:26;;;;;;;;;;;;;;;11.53;45.69;103087.81;5093272;28;20021;-81
2022/01/30 06:33:52;;;;;;;;;;;;;;;11.53;45.39;103085.13;5093638;28;20289;-82
2022/01/30 06:36:17;;;;;;;;;;;;;;;10.93;46.54;103085.97;5093631;28;19916;-80
2022/01/30 06:38:42;;;;;;;;;;;;;;;10.76;47.16;103096.09;5093252;28;20361;-81
2022/01/30 06:41:07;;;;;;;;;;;;;;;11.14;46.26;103092.00;5093339;28;19916;-81
2022/01/30 06:43:33;;;;;;;;;;;;;;;11.66;45.01;103088.50;5093147;28;19916;-81
2022/01/30 06:45:58;;;;;;;;;;;;;;;11.72;44.89;103086.63;5092969;28;19934;-81
2022/01/30 06:48:23;;;;;;;;;;;;;;;11.14;45.33;103094.69;5093640;28;19916;-81
2022/01/30 06:50:48;;;;;;;;;;;;;;;11.51;45.51;103088.75;5093210;28;19928;-81
2022/01/30 06:53:14;;;;;;;;;;;;;;;11.37;45.41;103090.75;5093189;28;20343;-81
2022/01/30 06:55:42;;;;;;;;;;;;;;;11.16;45.47;103087.47;5093604;28;20336;-81
2022/01/30 06:58:08;;;;;;;;;;;;;;;10.89;45.79;103088.72;5093307;28;19917;-81
2022/01/30 07:00:34;;;;;;;;;;;;;;;11.45;44.59;103087.03;5093396;28;19923;-81
2022/01/30 07:03:00;;;;;;;;;;;;;;;10.91;45.68;103085.06;5093314;28;19916;-81
2022/01/30 07:05:25;;;;;;;;;;;;;;;11.47;45.18;103089.72;5094624;28;19922;-81
2022/01/30 07:07:51;;;;;;;;;;;;;;;10.94;45.81;103097.69;5093408;28;19916;-81
2022/01/30 07:10:16;;;;;;;;;;;;;;;10.82;46.52;103102.34;5093244;28;19916;-81
2022/01/30 07:12:41;;;;;;;;;;;;;;;10.89;46.23;103110.41;5094027;28;19916;-81
2022/01/30 07:15:06;;;;;;;;;;;;;;;11.40;45.29;103120.53;5094965;28;20511;-80
2022/01/30 07:17:32;;;;;;;;;;;;;;;10.68;47.15;103122.38;5094718;28;20421;-81
2022/01/30 07:19:57;;;;;;;;;;;;;;;10.92;46.40;103116.66;5094472;28;19920;-80
2022/01/30 07:22:22;;;;;;;;;;;;;;;10.69;46.81;103127.78;5093853;28;20390;-81
2022/01/30 07:24:47;;;;;;;;;;;;;;;10.69;46.62;103126.88;5094386;28;20366;-81
2022/01/30 07:27:13;;;;;;;;;;;;;;;11.42;45.72;103138.56;5094255;28;19916;-81
2022/01/30 07:29:38;;;;;;;;;;;;;;;11.23;45.30;103140.66;5094009;28;19919;-81
2022/01/30 07:32:03;;;;;;;;;;;;;;;11.51;45.11;103143.84;5094356;28;19916;-81
2022/01/30 07:34:29;;;;;;;;;;;;;;;11.14;45.85;103148.88;5094643;28;20344;-82
2022/01/30 07:36:57;;;;;;;;;;;;;;;11.18;46.22;103146.09;5095369;28;19916;-81
2022/01/30 07:39:27;;;;;;;;;;;;;;;11.85;44.69;103145.16;5093839;28;19920;-81
2022/01/30 07:41:52;;;;;;;;;;;;;;;12.02;44.01;103136.78;5093330;28;19916;-79
2022/01/30 07:44:17;;;;;;;;;;;;;;;11.72;44.69;103136.31;5093984;28;19916;-82
2022/01/30 07:46:43;;;;;;;;;;;;;;;11.53;44.96;103132.97;5094580;28;19926;-80
2022/01/30 07:49:08;;;;;;;;;;;;;;;11.32;45.69;103136.91;5093991;28;19916;-80
2022/01/30 07:51:34;;;;;;;;;;;;;;;11.24;46.34;103131.59;5093795;28;19931;-80
2022/01/30 07:53:59;;;;;;;;;;;;;;;11.43;46.15;103132.25;5091866;28;20393;-81
2022/01/30 07:56:24;;;;;;;;;;;;;;;11.78;44.54;103141.66;5092386;28;20426;-81
2022/01/30 07:58:49;;;;;;;;;;;;;;;12.17;44.37;103141.94;5094504;28;19916;-80
2022/01/30 08:01:15;;;;;;;;;;;;;;;11.95;44.42;103133.25;5095544;28;19916;-81
2022/01/30 08:03:40;;;;;;;;;;;;;;;11.55;45.78;103133.88;5094403;28;19916;-84
2022/01/30 08:06:05;;;;;;;;;;;;;;;11.99;45.42;103126.88;5094824;28;20392;-81
2022/01/30 08:08:30;;;;;;;;;;;;;;;11.39;46.48;103133.19;5094612;28;19916;-82
2022/01/30 08:10:55;;;;;;;;;;;;;;;11.42;45.67;103135.84;5102302;28;19998;-81
2022/01/30 08:13:21;;;;;;;;;;;;;;;11.58;46.50;103139.25;5106553;28;19913;-82
2022/01/30 08:15:46;;;;;;;;;;;;;;;11.59;46.86;103138.31;5094682;28;19970;-82
2022/01/30 08:18:11;;;;;;;;;;;;;;;11.78;45.90;103146.19;5095803;28;19936;-82
2022/01/30 08:20:37;;;;;;;;;;;;;;;12.18;45.50;103142.84;5094343;28;20285;-82
2022/01/30 08:23:08;;;;;;;;;;;;;;;12.08;45.15;103144.81;5095022;28;19924;-82
2022/01/30 08:25:33;;;;;;;;;;;;;;;12.47;44.91;103146.84;5093827;28;19927;-82
2022/01/30 08:27:58;;;;;;;;;;;;;;;12.10;45.62;103145.69;5093712;28;19916;-83
2022/01/30 08:30:27;;;;;;;;;;;;;;;12.05;46.16;103155.72;5093601;28;20024;-83
2022/01/30 08:32:52;;;;;;;;;;;;;;;12.18;46.01;103153.69;5095965;28;19916;-83
2022/01/30 08:35:18;;;;;;;;;;;;;;;12.46;45.14;103159.53;5094808;28;19916;-82
2022/01/30 08:37:43;;;;;;;;;;;;;;;12.32;45.29;103156.16;5095324;28;20428;-81
2022/01/30 08:40:10;;;;;;;;;;;;;;;12.08;45.68;103160.19;5095041;28;20431;-82
2022/01/30 08:42:36;;;;;;;;;;;;;;;12.47;44.72;103163.13;5093621;28;20000;-80
2022/01/30 08:45:01;;;;;;;;;;;;;;;13.00;44.03;103158.47;5093725;28;19915;-82
2022/01/30 08:47:27;;;;;;;;;;;;;;;13.03;43.17;103158.41;5097615;28;19916;-88
2022/01/30 08:49:52;;;;;;;;;;;;;;;12.63;44.88;103159.19;5099303;28;19924;-85
2022/01/30 08:52:19;;;;;;;;;;;;;;;12.14;45.43;103149.22;5096656;28;19931;-86
2022/01/30 08:54:44;;;;;;;;;;;;;;;12.62;44.73;103142.94;5094696;28;19942;-86
2022/01/30 08:57:10;;;;;;;;;;;;;;;12.08;45.85;103154.75;5094998;28;19916;-86
2022/01/30 08:59:35;;;;;;;;;;;;;;;12.79;44.52;103148.94;5094761;28;20055;-88
2022/01/30 09:02:00;;;;;;;;;;;;;;;13.02;43.90;103159.34;5096218;28;19949;-86
2022/01/30 09:04:25;;;;;;;;;;;;;;;12.39;44.63;103164.19;5095168;28;19927;-85
2022/01/30 09:06:51;;;;;;;;;;;;;;;12.51;44.56;103167.59;5095491;28;19916;-89
2022/01/30 09:09:16;;;;;;;;;;;;;;;13.34;43.13;103168.66;5095477;28;19917;-87
2022/01/30 09:11:41;;;;;;;;;;;;;;;13.43;42.73;103173.88;5096388;28;19924;-84
2022/01/30 09:14:07;;;;;;;;;;;;;;;13.32;43.06;103181.34;5103924;28;19951;-87
2022/01/30 09:16:33;;;;;;;;;;;;;;;13.70;42.58;103178.75;5106794;28;19932;-85
2022/01/30 09:18:58;;;;;;;;;;;;;;;12.53;44.43;103185.66;5104807;28;19917;-85
2022/01/30 09:21:23;;;;;;;;;;;;;;;12.75;44.57;103187.94;5096912;28;20423;-85
2022/01/30 09:23:48;;;;;;;;;;;;;;;12.79;44.17;103199.63;5094918;28;19966;-85
2022/01/30 09:26:14;;;;;;;;;;;;;;;12.74;44.29;103184.34;5093725;28;19924;-87
2022/01/30 09:28:39;;;;;;;;;;;;;;;12.74;44.25;103200.66;5094655;28;19916;-89
2022/01/30 09:31:04;;;;;;;;;;;;;;;12.66;44.52;103197.16;5092626;28;20275;-85
2022/01/30 09:33:29;;;;;;;;;;;;;;;12.88;44.06;103192.22;5091753;28;20324;-86
2022/01/30 09:35:55;;;;;;;;;;;;;;;13.08;43.61;103204.50;5091174;28;20330;-87
2022/01/30 09:38:20;;;;;;;;;;;;;;;12.48;45.12;103198.38;5091852;28;20034;-83
2022/01/30 09:40:45;;;;;;;;;;;;;;;13.17;43.57;103209.75;5091590;28;20381;-85
2022/01/30 09:43:10;;;;;;;;;;;;;;;13.09;43.59;103212.63;5090162;28;19952;-84
2022/01/30 09:45:36;;;;;;;;;;;;;;;12.83;44.49;103198.66;5093277;28;19920;-83
2022/01/30 09:48:01;;;;;;;;;;;;;;;13.05;43.98;103212.72;5092308;28;20304;-85
2022/01/30 09:50:27;;;;;;;;;;;;;;;13.20;43.79;103209.69;5092559;28;19928;-86
2022/01/30 09:52:53;;;;;;;;;;;;;;;13.67;43.56;103204.19;5092419;28;19931;-84
2022/01/30 09:55:18;;;;;;;;;;;;;;;14.54;41.58;103192.97;5092615;28;20015;-84
2022/01/30 09:57:43;;;;;;;;;;;;;;;13.61;43.11;103202.50;5093736;28;19936;-84
2022/01/30 10:00:09;;;;;;;;;;;;;;;13.89;43.18;103209.13;5092594;28;20021;-85
2022/01/30 10:02:35;;;;;;;;;;;;;;;13.82;42.45;103203.81;5093272;28;19916;-83
2022/01/30 10:05:00;;;;;;;;;;;;;;;13.95;42.27;103199.00;5091124;28;19916;-83
2022/01/30 10:07:39;;;;;;;;;;;;;;;14.71;41.01;103200.69;5091465;28;19974;-85
2022/01/30 10:10:09;;;;;;;;;;;;;;;13.77;42.43;103200.31;5090492;28;19924;-84
2022/01/30 10:12:34;;;;;;;;;;;;;;;14.70;41.25;103198.00;5089967;28;19923;-83
2022/01/30 10:14:59;;;;;;;;;;;;;;;13.64;43.05;103201.53;5091562;28;20388;-83
2022/01/30 10:17:47;;;;;;;;;;;;;;;13.24;44.02;103215.94;5090076;28;19924;-84
2022/01/30 10:20:16;;;;;;;;;;;;;;;13.61;43.46;103216.09;5088767;28;20003;-84
2022/01/30 10:22:55;;;;;;;;;;;;;;;13.39;43.58;103218.41;5055251;28;19978;-82
2022/01/30 10:25:22;;;;;;;;;;;;;;;13.17;44.27;103225.19;5072296;28;20338;-84
2022/01/30 10:27:49;;;;;;;;;;;;;;;14.08;42.91;103239.53;5067755;28;20000;-83
2022/01/30 10:30:19;;;;;;;;;;;;;;;13.10;42.92;103241.63;5069124;28;20499;-83
2022/01/30 10:32:52;;;;;;;;;;;;;;;14.10;41.75;103237.63;5069373;28;19943;-84
2022/01/30 10:35:17;;;;;;;;;;;;;;;13.67;42.45;103231.38;5068625;28;19959;-84
2022/01/30 10:37:43;;;;;;;;;;;;;;;14.94;40.17;103222.81;5068644;28;20302;-83
2022/01/30 10:40:19;;;;;;;;;;;;;;;14.64;38.80;103226.31;5069064;28;19966;-84
2022/01/30 10:42:44;;;;;;;;;;;;;;;15.55;36.83;103225.56;5069724;28;19923;-84
2022/01/30 10:45:11;;;;;;;;;;;;;;;16.52;36.14;103213.38;5069324;28;19920;-85
2022/01/30 10:47:37;;;;;;;;;;;;;;;17.27;34.44;103217.97;5070122;28;20396;-86
2022/01/30 10:50:17;;;;;;;;;;;;;;;16.49;35.40;103214.38;5070540;28;19963;-87
2022/01/30 10:52:53;;;;;;;;;;;;;;;14.92;37.71;103222.84;5068998;28;19921;-85
2022/01/30 10:55:30;;;;;;;;;;;;;;;15.55;37.49;103212.84;5068161;28;19916;-86
2022/01/30 10:57:58;;;;;;;;;;;;;;;14.27;39.41;103218.19;5067859;28;19916;-85
2022/01/30 11:00:34;;;;;;;;;;;;;;;14.56;38.95;103227.44;5071946;28;19925;-87
2022/01/30 11:03:00;;;;;;;;;;;;;;;13.88;39.17;103223.66;5069134;28;19924;-85
2022/01/30 11:05:25;;;;;;;;;;;;;;;13.75;38.81;103234.84;5070049;28;19916;-84
2022/01/30 11:07:52;;;;;;;;;;;;;;;13.50;39.84;103239.91;5070818;28;20301;-84
2022/01/30 11:10:23;;;;;;;;;;;;;;;12.92;40.07;103241.94;5070147;28;19920;-85
2022/01/30 11:13:08;;;;;;;;;;;;;;;13.57;39.47;103244.31;5070986;28;19956;-83
2022/01/30 11:15:43;;;;;;;;;;;;;;;15.30;36.96;103237.22;5069868;28;19921;-84
2022/01/30 11:18:11;;;;;;;;;;;;;;;16.57;35.34;103222.28;5069809;28;19942;-84
2022/01/30 11:20:36;;;;;;;;;;;;;;;16.84;34.65;103220.41;5066801;28;19925;-85
2022/01/30 11:23:03;;;;;;;;;;;;;;;16.30;34.98;103215.00;5069953;28;19926;-83
2022/01/30 11:25:38;;;;;;;;;;;;;;;16.03;34.70;103224.97;5069902;28;20403;-83
2022/01/30 11:28:05;;;;;;;;;;;;;;;16.16;34.62;103230.06;5069016;28;19916;-85
2022/01/30 11:30:31;;;;;;;;;;;;;;;16.01;34.45;103234.19;5072555;28;19916;-83
2022/01/30 11:32:59;;;;;;;;;;;;;;;15.17;34.82;103225.78;5073582;28;20405;-85
2022/01/30 11:35:24;;;;;;;;;;;;;;;15.07;34.93;103227.88;5074073;28;19923;-84
2022/01/30 11:37:50;;;;;;;;;;;;;;;14.64;35.96;103228.16;5074171;28;19921;-82
2022/01/30 11:40:16;;;;;;;;;;;;;;;15.09;36.54;103225.09;5074233;28;19916;-82
2022/01/30 11:42:47;;;;;;;;;;;;;;;15.23;36.08;103217.44;5075106;28;19940;-85
2022/01/30 11:45:17;;;;;;;;;;;;;;;15.58;36.46;103215.47;5074422;28;19973;-83
2022/01/30 11:47:44;;;;;;;;;;;;;;;15.09;37.19;103222.38;5074494;28;20405;-84
2022/01/30 11:50:10;;;;;;;;;;;;;;;15.20;37.09;103214.78;5074866;28;20435;-85
2022/01/30 11:52:46;;;;;;;;;;;;;;;14.63;38.15;103208.19;5075656;28;19924;-84
2022/01/30 11:55:29;;;;;;;;;;;;;;;14.43;38.03;103211.44;5076250;28;19917;-84
2022/01/30 11:57:55;;;;;;;;;;;;;;;14.20;38.59;103217.44;5074450;28;19916;-84
2022/01/30 12:00:34;;;;;;;;;;;;;;;14.20;38.58;103209.28;5074670;28;19966;-86
2022/01/30 12:03:18;;;;;;;;;;;;;;;13.60;39.37;103216.13;5074752;28;19944;-84
2022/01/30 12:05:43;;;;;;;;;;;;;;;12.97;40.57;103207.44;5075005;28;19956;-83
2022/01/30 12:08:28;;;;;;;;;;;;;;;13.56;40.38;103203.53;5074631;28;20396;-84
2022/01/30 12:10:53;;;;;;;;;;;;;;;13.80;39.79;103200.25;5075804;28;19920;-84
2022/01/30 12:13:38;;;;;;;;;;;;;;;14.63;38.73;103201.84;5075285;28;20385;-83
2022/01/30 12:16:04;;;;;;;;;;;;;;;15.71;36.94;103193.25;5072795;28;19917;-87
2022/01/30 12:18:44;;;;;;;;;;;;;;;16.87;34.79;103183.91;5074399;28;19966;-84
2022/01/30 12:21:15;;;;;;;;;;;;;;;16.14;35.67;103186.44;5074690;28;19932;-85
2022/01/30 12:23:41;;;;;;;;;;;;;;;16.53;35.39;103182.34;5074107;28;19921;-84
2022/01/30 12:26:08;;;;;;;;;;;;;;;16.08;35.54;103178.44;5073715;28;20391;-84
2022/01/30 12:28:49;;;;;;;;;;;;;;;15.60;36.23;103172.66;5076314;28;19960;-85
2022/01/30 12:31:23;;;;;;;;;;;;;;;15.14;36.86;103181.34;5085186;28;20388;-84
2022/01/30 12:33:48;;;;;;;;;;;;;;;14.75;37.67;103174.28;5090935;28;19999;-85
2022/01/30 12:36:15;;;;;;;;;;;;;;;14.21;37.85;103172.94;5080110;28;19954;-83
2022/01/30 12:38:40;;;;;;;;;;;;;;;13.72;39.37;103172.31;5079438;28;19956;-83
2022/01/30 12:41:12;;;;;;;;;;;;;;;13.99;38.84;103162.63;5075937;28;19985;-82
2022/01/30 12:43:38;;;;;;;;;;;;;;;14.25;38.62;103157.41;5074539;28;19920;-82
2022/01/30 12:46:05;;;;;;;;;;;;;;;14.16;38.55;103153.09;5077888;28;20319;-84
2022/01/30 12:48:31;;;;;;;;;;;;;;;13.91;38.62;103148.28;5075916;28;20049;-85
2022/01/30 12:51:02;;;;;;;;;;;;;;;14.49;38.39;103136.81;5073738;28;19925;-82
2022/01/30 12:53:28;;;;;;;;;;;;;;;14.86;37.40;103130.38;5074260;28;20415;-83
2022/01/30 12:55:53;;;;;;;;;;;;;;;15.07;36.53;103120.66;5073516;28;19925;-85
2022/01/30 12:58:19;;;;;;;;;;;;;;;15.20;36.09;103118.44;5075125;28;19916;-83
2022/01/30 13:00:44;;;;;;;;;;;;;;;14.99;36.18;103111.81;5073315;28;19928;-84
2022/01/30 13:03:18;;;;;;;;;;;;;;;14.88;37.66;103123.03;5073724;28;19916;-88
2022/01/30 13:05:44;;;;;;;;;;;;;;;13.82;37.39;103118.59;5075676;28;19920;-87
2022/01/30 13:08:09;;;;;;;;;;;;;;;13.94;36.92;103111.94;5074491;28;19920;-89
2022/01/30 13:10:34;;;;;;;;;;;;;;;13.90;36.70;103102.06;5073544;28;19955;-88
2022/01/30 13:13:00;;;;;;;;;;;;;;;14.57;36.06;103107.53;5075067;28;19970;-90
2022/01/30 13:15:27;;;;;;;;;;;;;;;14.92;35.80;103086.56;5074698;28;19950;-89
2022/01/30 13:17:52;;;;;;;;;;;;;;;15.50;35.17;103083.84;5075330;28;19920;-89
2022/01/30 13:20:21;;;;;;;;;;;;;;;15.87;34.07;103081.78;5076062;28;19925;-92
2022/01/30 13:22:46;;;;;;;;;;;;;;;15.27;34.16;103081.88;5074610;28;19916;-90
2022/01/30 13:25:16;;;;;;;;;;;;;;;15.26;32.80;103065.56;5075375;28;20475;-90
2022/01/30 13:27:46;;;;;;;;;;;;;;;15.97;32.87;103068.69;5078080;28;19921;-90